Time;durP1;ratioP1;P1;durP2;ratioP2;P2;SDS_P1;SDS_P2;PMS_P1;PMS_P2;Temp;Humidity;BMP_temperature;BMP_pressure;BME280_temperature;BME280_humidity;BME280_pressure;Samples;Min_cycle;Max_cycle;Signal;HPM_P1;HPM_P2
2021/12/05 00:24:08;;;;;;;13.10;1.88;;;7.60;99.90;;;;;;4933586;29;20060;-87
2021/12/05 00:26:35;;;;;;;14.52;2.38;;;7.70;99.90;;;;;;4933543;29;20031;-87
2021/12/05 00:29:11;;;;;;;13.95;3.83;;;7.70;99.90;;;;;;4933931;29;20063;-88
2021/12/05 00:31:55;;;;;;;12.70;2.30;;;7.80;99.90;;;;;;4934561;29;20459;-88
2021/12/05 01:16:45;;;;;;;14.20;1.92;;;7.70;99.90;;;;;;4936910;29;20023;-89
2021/12/05 01:19:14;;;;;;;23.52;2.00;;;7.70;99.90;;;;;;4935565;29;20119;-87
2021/12/05 01:21:41;;;;;;;16.20;2.33;;;7.70;99.90;;;;;;4936605;29;20071;-88
2021/12/05 01:24:26;;;;;;;15.43;2.15;;;7.70;99.90;;;;;;4936815;29;20030;-89
2021/12/05 01:27:08;;;;;;;18.65;1.92;;;7.60;99.90;;;;;;4935561;29;20420;-87
2021/12/05 01:29:46;;;;;;;21.52;3.30;;;7.60;99.90;;;;;;4937060;29;20028;-87
2021/12/05 01:53:29;;;;;;;19.40;2.25;;;7.80;99.90;;;;;;4936347;29;20024;-88
2021/12/05 02:34:29;;;;;;;14.18;2.45;;;7.50;99.90;;;;;;4935733;29;20030;-89
2021/12/05 02:45:03;;;;;;;20.00;2.20;;;7.70;99.90;;;;;;4933798;29;20044;-88
2021/12/05 02:47:30;;;;;;;15.77;2.20;;;7.80;99.90;;;;;;4935617;29;20034;-91
2021/12/05 02:50:00;;;;;;;7.00;0.50;;;7.70;99.90;;;;;;4935290;29;20083;-89
2021/12/05 02:52:31;;;;;;;11.07;0.90;;;7.50;99.90;;;;;;4935482;29;20032;-89
2021/12/05 02:55:05;;;;;;;15.10;2.42;;;7.40;99.90;;;;;;4933945;29;20039;-90
2021/12/05 02:57:48;;;;;;;9.75;1.10;;;7.40;99.90;;;;;;4934469;29;20024;-91
2021/12/05 03:00:21;;;;;;;5.97;0.82;;;7.40;99.90;;;;;;4933963;29;20047;-90
2021/12/05 03:02:50;;;;;;;5.18;0.70;;;7.40;99.90;;;;;;4919160;29;20056;-91
2021/12/05 03:05:20;;;;;;;7.32;1.08;;;7.40;99.90;;;;;;4933961;29;20043;-90
2021/12/05 03:07:48;;;;;;;11.95;1.58;;;7.40;99.90;;;;;;4933882;29;20027;-89
2021/12/05 03:10:18;;;;;;;15.38;2.38;;;7.50;99.90;;;;;;4933529;29;20066;-88
2021/12/05 03:12:45;;;;;;;26.52;2.60;;;7.40;99.90;;;;;;4935330;29;20087;-90
2021/12/05 03:15:15;;;;;;;27.38;3.20;;;7.20;99.90;;;;;;4935029;29;20079;-88
2021/12/05 03:17:42;;;;;;;26.83;1.90;;;7.00;99.90;;;;;;4935092;29;20027;-88
2021/12/05 03:20:10;;;;;;;11.60;1.65;;;7.00;99.90;;;;;;4934851;29;20449;-88
2021/12/05 03:22:36;;;;;;;10.75;0.80;;;7.00;99.90;;;;;;4934625;29;20030;-87
2021/12/05 03:25:03;;;;;;;11.35;1.08;;;7.10;99.90;;;;;;4933236;29;20047;-87
2021/12/05 03:27:29;;;;;;;7.32;1.00;;;7.10;99.90;;;;;;4934480;29;20041;-86
2021/12/05 03:29:55;;;;;;;12.85;1.10;;;7.00;99.90;;;;;;4933073;29;20028;-87
2021/12/05 03:32:21;;;;;;;18.67;2.28;;;7.10;99.90;;;;;;4933080;29;20020;-85
2021/12/05 03:34:46;;;;;;;16.65;1.55;;;7.00;99.90;;;;;;4933403;29;20067;-86
2021/12/05 03:37:12;;;;;;;25.20;3.15;;;6.80;99.90;;;;;;4934240;29;20039;-86
2021/12/05 03:39:38;;;;;;;23.15;3.30;;;6.80;99.90;;;;;;4933859;29;20032;-86
2021/12/05 03:42:05;;;;;;;23.17;2.63;;;6.70;99.90;;;;;;4933089;29;20046;-86
2021/12/05 03:44:35;;;;;;;22.80;2.83;;;6.70;99.90;;;;;;4934487;29;20054;-86
2021/12/05 03:47:05;;;;;;;31.50;3.20;;;6.70;99.90;;;;;;4934197;29;20036;-86
2021/12/05 03:49:31;;;;;;;28.65;2.75;;;6.70;99.90;;;;;;4932770;29;20052;-86
2021/12/05 03:52:16;;;;;;;29.13;2.70;;;6.70;99.90;;;;;;4934407;29;20036;-86
2021/12/05 03:54:42;;;;;;;14.50;2.08;;;6.80;99.90;;;;;;4933856;29;20019;-86
2021/12/05 03:57:08;;;;;;;12.13;1.80;;;6.80;99.90;;;;;;4933845;29;20501;-86
2021/12/05 03:59:34;;;;;;;12.27;1.55;;;6.90;99.90;;;;;;4933904;29;20048;-86
2021/12/05 04:02:03;;;;;;;11.82;1.58;;;6.90;99.90;;;;;;4934246;29;20106;-86
2021/12/05 04:04:29;;;;;;;15.68;1.13;;;6.90;99.90;;;;;;4932610;29;20036;-86
2021/12/05 04:06:55;;;;;;;9.35;1.00;;;6.80;99.90;;;;;;4934237;29;20032;-85
2021/12/05 04:09:21;;;;;;;9.23;0.93;;;6.60;99.90;;;;;;4932044;29;20039;-86
2021/12/05 04:11:57;;;;;;;4.55;0.60;;;6.50;99.90;;;;;;4933945;29;20032;-87
2021/12/05 04:14:28;;;;;;;9.82;1.30;;;6.40;99.90;;;;;;4932433;29;20028;-87
2021/12/05 04:16:54;;;;;;;11.18;1.17;;;6.40;99.90;;;;;;4933583;29;20068;-87
2021/12/05 04:19:22;;;;;;;13.85;1.30;;;6.40;99.90;;;;;;4932235;29;20058;-89
2021/12/05 04:21:48;;;;;;;5.95;1.00;;;6.40;99.90;;;;;;4932349;29;20408;-87
2021/12/05 04:24:15;;;;;;;13.65;1.42;;;6.40;99.90;;;;;;4932213;29;20042;-88
2021/12/05 04:26:41;;;;;;;10.73;1.30;;;6.50;99.90;;;;;;4932355;29;20038;-88
2021/12/05 04:29:08;;;;;;;10.80;1.35;;;6.50;99.90;;;;;;4933474;29;20106;-88
2021/12/05 04:31:36;;;;;;;9.68;1.55;;;6.60;99.90;;;;;;4933502;29;20283;-89
2021/12/05 04:34:03;;;;;;;10.15;1.83;;;6.60;99.90;;;;;;4932337;29;20130;-89
2021/12/05 04:36:28;;;;;;;11.77;1.40;;;6.60;99.90;;;;;;4933822;29;20451;-89
2021/12/05 04:38:54;;;;;;;7.50;1.08;;;6.60;99.90;;;;;;4932433;29;20024;-90
2021/12/05 04:41:20;;;;;;;9.70;1.00;;;6.60;99.90;;;;;;4933681;29;20445;-90
2021/12/05 04:43:47;;;;;;;17.00;1.60;;;6.70;99.90;;;;;;4933551;29;20051;-89
2021/12/05 04:46:15;;;;;;;9.15;1.05;;;6.70;99.90;;;;;;4932060;29;20492;-90
2021/12/05 04:48:44;;;;;;;7.97;1.40;;;6.70;99.90;;;;;;4933706;29;20103;-90
2021/12/05 04:51:10;;;;;;;8.10;0.95;;;6.70;99.90;;;;;;4933508;29;20357;-89
2021/12/05 04:53:36;;;;;;;9.25;1.10;;;6.70;99.90;;;;;;4932278;29;20024;-89
2021/12/05 04:56:02;;;;;;;15.57;1.40;;;6.80;99.90;;;;;;4933634;29;20032;-89
2021/12/05 04:58:28;;;;;;;8.90;1.50;;;6.80;99.90;;;;;;4933432;29;20050;-89
2021/12/05 05:00:57;;;;;;;8.18;1.20;;;6.80;99.90;;;;;;4932116;29;20114;-89
2021/12/05 05:03:25;;;;;;;12.10;1.20;;;6.80;99.90;;;;;;4931954;29;20030;-89
2021/12/05 05:05:59;;;;;;;10.13;1.30;;;6.80;99.90;;;;;;4933248;29;20118;-89
2021/12/05 05:08:27;;;;;;;10.85;1.27;;;6.80;99.90;;;;;;4933279;29;20504;-89
2021/12/05 05:10:54;;;;;;;9.77;1.10;;;6.80;99.90;;;;;;4933053;29;20126;-89
2021/12/05 05:13:20;;;;;;;7.68;1.17;;;6.80;99.90;;;;;;4933240;29;20413;-89
2021/12/05 05:15:46;;;;;;;13.65;1.10;;;6.80;99.90;;;;;;4932053;29;20039;-88
2021/12/05 05:18:13;;;;;;;9.35;1.23;;;6.80;99.90;;;;;;4931963;29;20459;-88
2021/12/05 05:21:00;;;;;;;8.55;1.20;;;6.80;99.90;;;;;;4933421;29;20062;-88
2021/12/05 05:52:20;;;;;;;4.43;0.68;;;6.50;99.90;;;;;;4932900;29;20051;-87
2021/12/05 05:54:48;;;;;;;7.18;1.33;;;6.50;99.90;;;;;;4931170;29;20047;-87
2021/12/05 06:00:09;;;;;;;9.77;1.13;;;6.50;99.90;;;;;;4935308;29;20517;-87
2021/12/05 06:05:21;;;;;;;6.63;0.80;;;6.40;99.90;;;;;;4936268;29;20147;-87
2021/12/05 06:07:47;;;;;;;10.15;1.05;;;6.40;99.90;;;;;;4936091;29;20031;-86
2021/12/05 06:10:19;;;;;;;12.52;1.13;;;6.40;99.90;;;;;;4936111;29;20078;-86
2021/12/05 06:12:46;;;;;;;6.43;1.30;;;6.40;99.90;;;;;;4936895;29;20032;-87
2021/12/05 06:15:14;;;;;;;10.02;1.23;;;6.30;99.90;;;;;;4937844;29;20023;-87
2021/12/05 06:17:41;;;;;;;8.55;1.35;;;6.30;99.90;;;;;;4936144;29;20028;-86
2021/12/05 06:20:13;;;;;;;7.60;1.42;;;6.30;99.90;;;;;;4937000;29;20047;-86
2021/12/05 06:22:39;;;;;;;13.52;1.55;;;6.40;99.90;;;;;;4938270;29;20385;-87
2021/12/05 06:25:09;;;;;;;11.75;1.70;;;6.30;99.90;;;;;;4947581;29;20047;-87
2021/12/05 06:27:35;;;;;;;9.23;1.27;;;6.30;99.90;;;;;;4951010;29;20028;-86
2021/12/05 06:30:29;;;;;;;5.35;0.85;;;6.40;99.90;;;;;;4949012;29;20138;-87
2021/12/05 06:41:05;;;;;;;11.10;1.30;;;6.20;99.90;;;;;;4953558;29;20032;-87
2021/12/05 06:46:12;;;;;;;11.23;1.33;;;6.20;99.90;;;;;;4953466;29;20070;-86
2021/12/05 06:48:39;;;;;;;10.02;1.52;;;6.20;99.90;;;;;;4953295;29;20038;-88
2021/12/05 06:51:05;;;;;;;4.90;0.88;;;6.20;99.90;;;;;;4948809;29;20050;-86
2021/12/05 06:53:31;;;;;;;7.05;0.90;;;6.10;99.90;;;;;;4946594;29;20099;-87
2021/12/05 06:55:57;;;;;;;5.57;1.23;;;6.10;99.90;;;;;;4949346;29;20027;-87
2021/12/05 06:58:23;;;;;;;6.35;0.80;;;6.10;99.90;;;;;;4949504;29;20099;-87
2021/12/05 07:01:06;;;;;;;8.68;1.50;;;6.00;99.90;;;;;;4949912;29;20095;-88
2021/12/05 07:03:33;;;;;;;7.03;0.90;;;5.90;99.90;;;;;;4936371;29;20032;-87
2021/12/05 07:06:04;;;;;;;10.32;1.25;;;5.90;99.90;;;;;;4934872;29;20366;-87
2021/12/05 07:08:34;;;;;;;7.25;1.77;;;5.90;99.90;;;;;;4919026;29;20430;-87
2021/12/05 07:11:17;;;;;;;10.48;1.98;;;5.80;99.90;;;;;;4934480;29;20027;-87
2021/12/05 07:16:16;;;;;;;7.78;1.45;;;5.80;99.90;;;;;;4934911;29;20086;-87
2021/12/05 07:18:59;;;;;;;8.07;1.50;;;5.80;99.90;;;;;;4933437;29;20035;-87
2021/12/05 07:40:28;;;;;;;4.35;1.00;;;5.80;99.90;;;;;;4950402;29;20027;-87
2021/12/05 07:42:55;;;;;;;4.60;0.70;;;5.70;99.90;;;;;;4934700;29;20118;-87
2021/12/05 07:45:28;;;;;;;4.70;0.90;;;5.70;99.90;;;;;;4932368;29;20179;-88
2021/12/05 07:47:55;;;;;;;4.50;1.30;;;5.80;99.90;;;;;;4934707;29;20111;-87
2021/12/05 07:50:33;;;;;;;6.97;1.25;;;5.80;99.90;;;;;;4936936;29;20031;-90
2021/12/05 07:53:06;;;;;;;9.07;2.20;;;5.70;99.90;;;;;;4936058;29;20027;-90
2021/12/05 07:55:40;;;;;;;6.50;1.48;;;5.70;99.90;;;;;;4939644;29;20111;-91
2021/12/05 08:16:59;;;;;;;6.75;1.17;;;6.20;99.90;;;;;;4934035;29;20042;-90
2021/12/05 08:19:25;;;;;;;6.18;0.70;;;6.30;99.90;;;;;;4933623;29;20450;-91
2021/12/05 08:21:55;;;;;;;2.95;0.65;;;6.30;99.90;;;;;;4934006;29;20063;-91
2021/12/05 08:24:29;;;;;;;6.18;1.13;;;6.30;99.90;;;;;;4932589;29;20098;-87
2021/12/05 08:26:55;;;;;;;4.20;0.60;;;6.40;99.90;;;;;;4933604;29;20055;-89
2021/12/05 08:29:31;;;;;;;6.28;1.00;;;6.40;99.90;;;;;;4933739;29;20059;-88
2021/12/05 08:32:11;;;;;;;10.25;0.88;;;6.50;99.90;;;;;;4933882;29;20027;-89
2021/12/05 09:21:23;;;;;;;13.13;2.15;;;7.60;99.90;;;;;;4936375;29;20140;-94
2021/12/05 09:38:34;;;;;;;15.32;2.30;;;7.80;99.90;;;;;;4934160;29;20034;-92
2021/12/05 10:09:51;;;;;;;12.43;3.35;;;8.40;99.90;;;;;;4937661;29;20031;-91
2021/12/05 10:36:07;;;;;;;14.83;2.83;;;8.90;99.90;;;;;;4938409;29;20039;-90
2021/12/05 10:38:52;;;;;;;26.67;4.57;;;9.00;99.90;;;;;;4919773;29;20307;-91
2021/12/05 10:41:58;;;;;;;18.88;3.05;;;9.00;99.90;;;;;;4937561;29;20063;-90
2021/12/05 10:44:47;;;;;;;11.65;2.25;;;9.10;99.90;;;;;;4919630;29;20118;-91
2021/12/05 10:48:09;;;;;;;12.50;2.13;;;9.10;99.90;;;;;;4935945;29;20051;-95
2021/12/05 10:50:47;;;;;;;13.80;2.55;;;9.10;99.90;;;;;;4925689;29;20071;-90
2021/12/05 11:01:05;;;;;;;15.83;2.70;;;9.40;99.90;;;;;;4934982;28;20425;-93
2021/12/05 11:03:31;;;;;;;14.60;2.20;;;9.40;99.90;;;;;;4935084;29;20028;-90
2021/12/05 11:05:57;;;;;;;13.98;2.75;;;9.40;99.90;;;;;;4935659;29;20147;-93
2021/12/05 11:08:38;;;;;;;14.40;2.75;;;9.50;99.90;;;;;;4936861;29;20039;-91
2021/12/05 11:11:15;;;;;;;10.70;2.05;;;9.50;99.90;;;;;;4934482;29;20031;-90
2021/12/05 11:13:45;;;;;;;18.58;2.40;;;9.60;99.90;;;;;;4933593;29;20119;-92
2021/12/05 11:16:41;;;;;;;19.00;2.97;;;9.60;99.90;;;;;;4934471;29;20433;-91
2021/12/05 11:19:15;;;;;;;15.98;2.65;;;9.60;99.90;;;;;;4934629;29;20083;-93
2021/12/05 11:21:49;;;;;;;20.08;3.00;;;9.70;99.90;;;;;;4935599;29;20079;-93
2021/12/05 11:24:26;;;;;;;18.75;2.72;;;9.70;99.90;;;;;;4934438;29;20035;-91
2021/12/05 11:27:01;;;;;;;17.10;2.45;;;9.80;99.90;;;;;;4933660;29;20099;-91
2021/12/05 11:29:42;;;;;;;15.82;2.60;;;9.90;99.90;;;;;;4933716;29;20027;-94
2021/12/05 11:32:11;;;;;;;15.85;2.30;;;10.00;99.90;;;;;;4933674;29;20087;-94
2021/12/05 11:34:37;;;;;;;14.32;2.40;;;10.00;99.90;;;;;;4933982;29;20087;-91
2021/12/05 11:37:02;;;;;;;14.77;2.20;;;10.10;99.90;;;;;;4933366;29;20032;-93
2021/12/05 11:39:28;;;;;;;21.95;2.78;;;10.10;99.90;;;;;;4934851;29;20027;-92
2021/12/05 11:41:56;;;;;;;16.38;3.15;;;10.10;99.90;;;;;;4941985;29;20095;-91
2021/12/05 11:44:23;;;;;;;21.33;3.25;;;10.20;99.90;;;;;;4941809;29;20043;-92
2021/12/05 11:46:49;;;;;;;28.17;8.32;;;10.20;99.90;;;;;;4936563;29;20035;-92
2021/12/05 11:49:21;;;;;;;33.72;12.20;;;10.20;99.90;;;;;;4933868;29;20032;-90
2021/12/05 11:51:51;;;;;;;29.55;9.07;;;10.30;99.90;;;;;;4933579;29;20141;-90
2021/12/05 11:54:23;;;;;;;15.65;2.70;;;10.40;99.90;;;;;;4934978;29;20019;-89
2021/12/05 11:56:54;;;;;;;13.20;2.55;;;10.40;99.90;;;;;;4933969;29;20058;-89
2021/12/05 11:59:28;;;;;;;16.98;2.42;;;10.50;99.90;;;;;;4933610;29;20521;-91
2021/12/05 12:02:18;;;;;;;17.80;3.05;;;10.50;99.90;;;;;;4934006;29;20040;-92
2021/12/05 12:05:05;;;;;;;21.70;2.97;;;10.60;99.90;;;;;;4935233;29;20027;-94
2021/12/05 12:07:36;;;;;;;15.70;2.35;;;10.50;99.90;;;;;;4934199;29;20098;-93
2021/12/05 12:10:10;;;;;;;14.07;3.08;;;10.50;99.90;;;;;;4934160;29;20043;-93
2021/12/05 12:12:37;;;;;;;18.02;3.05;;;10.50;99.90;;;;;;4929122;29;20341;-92
2021/12/05 12:15:04;;;;;;;19.13;2.20;;;10.50;99.90;;;;;;4923291;29;20031;-92
2021/12/05 12:17:30;;;;;;;20.80;3.25;;;10.50;99.90;;;;;;4938649;29;20097;-93
2021/12/05 12:19:59;;;;;;;22.85;3.08;;;10.50;99.90;;;;;;4933030;29;20103;-94
2021/12/05 12:22:38;;;;;;;13.75;2.00;;;10.40;99.90;;;;;;4933242;29;20424;-91
2021/12/05 12:25:28;;;;;;;16.80;2.40;;;10.40;99.90;;;;;;4934084;29;20027;-93
2021/12/05 12:28:44;;;;;;;;;;;;;;;;;;;;;
2021/12/05 12:32:10;;;;;;;;;;;;;;;;;;;;;
2021/12/05 12:35:17;;;;;;;12.55;2.30;;;10.50;99.90;;;;;;4935790;28;20040;-91
2021/12/05 12:41:20;;;;;;;19.35;2.60;;;10.50;99.90;;;;;;4935363;29;20394;-92
2021/12/05 12:44:22;;;;;;;;;;;;;;;;;;;;;
2021/12/05 12:46:56;;;;;;;18.40;5.10;;;10.60;99.90;;;;;;4875455;29;20041;-93
2021/12/05 12:49:36;;;;;;;;;;;;;;;;;;;;;
2021/12/05 12:56:42;;;;;;;17.75;3.72;;;10.70;99.90;;;;;;4919688;29;20518;-93
2021/12/05 12:59:55;;;;;;;15.90;2.70;;;10.80;99.90;;;;;;4936079;28;20568;-94
2021/12/05 13:10:37;;;;;;;;;;;;;;;;;;;;;
2021/12/05 13:13:38;;;;;;;;;;;;;;;;;;;;;
2021/12/05 13:16:15;;;;;;;21.33;2.75;;;10.50;99.90;;;;;;4937362;29;20030;-92
2021/12/05 13:18:43;;;;;;;18.48;2.13;;;10.60;99.90;;;;;;4936092;29;20039;-92
2021/12/05 13:21:16;;;;;;;15.65;2.08;;;10.70;99.90;;;;;;4936167;29;20031;-93
2021/12/05 13:23:48;;;;;;;15.95;2.35;;;10.80;99.90;;;;;;4935697;29;20031;-93
2021/12/05 13:26:36;;;;;;;14.50;2.58;;;10.80;99.90;;;;;;4936090;29;20054;-93
2021/12/05 13:29:16;;;;;;;16.08;2.50;;;10.80;99.90;;;;;;4936581;29;20032;-92
2021/12/05 13:31:47;;;;;;;13.95;2.20;;;10.80;99.90;;;;;;4937627;29;20111;-93
2021/12/05 13:34:33;;;;;;;14.15;2.47;;;10.70;99.90;;;;;;4957897;29;20019;-91
2021/12/05 13:37:05;;;;;;;14.05;2.50;;;10.70;99.90;;;;;;4938185;29;20060;-94
2021/12/05 13:39:46;;;;;;;20.33;2.40;;;10.80;99.90;;;;;;4936378;29;20039;-92
2021/12/05 13:42:14;;;;;;;19.23;2.45;;;10.90;99.90;;;;;;4936406;29;20059;-92
2021/12/05 13:44:58;;;;;;;12.95;2.15;;;10.90;99.90;;;;;;4937544;29;20035;-91
2021/12/05 13:47:29;;;;;;;14.00;2.30;;;10.80;99.90;;;;;;4936283;29;20035;-93
2021/12/05 13:49:56;;;;;;;14.68;2.55;;;10.80;99.90;;;;;;4936279;29;20036;-93
2021/12/05 13:52:52;;;;;;;14.02;1.70;;;10.70;99.90;;;;;;4936146;29;20404;-91
2021/12/05 13:55:41;;;;;;;15.45;2.63;;;10.70;99.90;;;;;;4931731;29;20043;-91
2021/12/05 14:01:14;;;;;;;13.77;3.22;;;10.60;99.90;;;;;;4937521;29;20047;-89
2021/12/05 14:04:01;;;;;;;20.85;2.10;;;10.60;99.90;;;;;;4935699;29;20030;-90
2021/12/05 14:06:57;;;;;;;13.13;1.73;;;10.60;99.90;;;;;;4936552;29;20043;-91
2021/12/05 14:09:31;;;;;;;15.73;2.33;;;10.50;99.90;;;;;;4936673;29;20028;-89
2021/12/05 14:12:08;;;;;;;21.45;2.85;;;10.60;99.90;;;;;;4934769;29;20019;-89
2021/12/05 14:14:53;;;;;;;13.77;2.03;;;10.50;99.90;;;;;;4934090;29;20036;-90
2021/12/05 14:17:29;;;;;;;;;;;10.50;99.90;;;;;;4936151;29;20032;-90
2021/12/05 14:20:17;;;;;;;17.05;2.30;;;10.60;99.90;;;;;;4935129;29;19961;-90
2021/12/05 14:22:46;;;;;;;14.27;2.38;;;10.50;99.90;;;;;;4935616;29;20035;-90
2021/12/05 14:25:17;;;;;;;13.05;2.78;;;10.50;99.90;;;;;;4934566;29;20134;-90
2021/12/05 14:27:46;;;;;;;13.07;2.08;;;10.50;99.90;;;;;;4935578;29;20031;-90
2021/12/05 14:30:19;;;;;;;19.45;2.67;;;10.40;99.90;;;;;;4934204;29;20030;-90
2021/12/05 14:32:46;;;;;;;14.45;1.88;;;10.40;99.90;;;;;;4935380;29;20378;-90
2021/12/05 14:35:15;;;;;;;16.52;1.80;;;10.40;99.90;;;;;;4934030;29;20054;-90
2021/12/05 14:37:44;;;;;;;15.35;2.60;;;10.30;99.90;;;;;;4935344;29;20028;-90
2021/12/05 14:40:13;;;;;;;9.98;1.50;;;10.30;99.90;;;;;;4935430;29;20028;-90
2021/12/05 14:42:44;;;;;;;12.40;1.98;;;10.30;99.90;;;;;;4935357;29;20024;-89
2021/12/05 14:45:14;;;;;;;18.15;2.83;;;10.30;99.90;;;;;;4935058;29;20035;-90
2021/12/05 14:47:42;;;;;;;21.95;2.92;;;10.30;99.90;;;;;;4935034;29;20031;-89
2021/12/05 14:50:12;;;;;;;22.95;3.00;;;10.30;99.90;;;;;;4933621;29;20032;-89
2021/12/05 14:52:41;;;;;;;11.98;1.92;;;10.20;99.90;;;;;;4935206;29;20031;-89
2021/12/05 14:55:10;;;;;;;15.38;2.45;;;10.20;99.90;;;;;;4935049;29;20027;-90
2021/12/05 14:57:43;;;;;;;12.48;2.28;;;10.20;99.90;;;;;;4935167;29;20027;-93
2021/12/05 15:00:18;;;;;;;12.35;2.03;;;10.20;99.90;;;;;;4934173;29;20110;-89
2021/12/05 15:02:44;;;;;;;13.68;2.33;;;10.10;99.90;;;;;;4935657;29;20059;-89
2021/12/05 15:05:17;;;;;;;18.30;2.75;;;10.10;99.90;;;;;;4935512;29;20493;-89
2021/12/05 15:07:44;;;;;;;13.10;2.67;;;10.00;99.90;;;;;;4934155;29;20019;-93
2021/12/05 15:10:17;;;;;;;17.77;3.38;;;10.00;99.90;;;;;;4935625;29;20446;-89
2021/12/05 15:12:43;;;;;;;14.48;2.63;;;9.90;99.90;;;;;;4935595;29;20079;-89
2021/12/05 15:15:11;;;;;;;16.48;3.30;;;10.00;99.90;;;;;;4935289;29;20034;-90
2021/12/05 15:17:40;;;;;;;18.48;3.88;;;10.00;99.90;;;;;;4935365;29;20318;-90
2021/12/05 15:20:15;;;;;;;18.20;3.33;;;10.10;99.90;;;;;;4935258;29;20078;-89
2021/12/05 15:22:43;;;;;;;14.27;3.15;;;10.20;99.90;;;;;;4935387;29;20024;-89
2021/12/05 15:25:16;;;;;;;15.13;2.95;;;10.30;99.90;;;;;;4941828;29;20027;-91
2021/12/05 15:27:42;;;;;;;13.38;2.00;;;10.30;99.90;;;;;;4933289;29;20028;-89
2021/12/05 15:30:14;;;;;;;16.90;3.20;;;10.30;99.90;;;;;;4932873;29;20067;-89
2021/12/05 15:32:41;;;;;;;14.20;2.20;;;10.20;99.90;;;;;;4934554;29;20126;-89
2021/12/05 15:35:12;;;;;;;17.63;3.13;;;10.10;99.90;;;;;;4932918;29;20054;-90
2021/12/05 15:37:44;;;;;;;12.00;1.85;;;10.10;99.90;;;;;;4934493;29;20125;-90
2021/12/05 15:40:10;;;;;;;14.75;2.60;;;10.20;99.90;;;;;;4934194;29;20050;-89
2021/12/05 15:42:40;;;;;;;13.98;1.90;;;10.20;99.90;;;;;;4934440;29;20484;-90
2021/12/05 15:45:10;;;;;;;18.60;1.92;;;10.30;99.90;;;;;;4934649;29;20507;-90
2021/12/05 15:47:37;;;;;;;19.88;3.45;;;10.30;99.90;;;;;;4934860;29;20028;-89
2021/12/05 15:50:08;;;;;;;16.25;2.25;;;10.20;99.90;;;;;;4935251;29;20028;-89
2021/12/05 15:52:42;;;;;;;18.80;2.15;;;10.10;99.90;;;;;;4934727;29;20032;-92
2021/12/05 15:55:24;;;;;;;15.40;2.90;;;10.00;99.90;;;;;;4934646;29;20166;-90
2021/12/05 15:57:55;;;;;;;19.17;3.08;;;9.90;99.90;;;;;;4934353;29;20593;-89
2021/12/05 16:00:27;;;;;;;14.07;3.17;;;9.90;99.90;;;;;;4933534;29;20571;-90
2021/12/05 16:03:18;;;;;;;19.30;3.78;;;9.80;99.90;;;;;;4932451;29;20030;-92
2021/12/05 16:05:51;;;;;;;21.80;4.78;;;9.80;99.90;;;;;;4933079;29;20143;-89
2021/12/05 16:08:17;;;;;;;18.40;3.80;;;9.80;99.90;;;;;;4932409;29;20024;-96
2021/12/05 16:10:49;;;;;;;18.98;5.22;;;9.70;99.90;;;;;;4932145;29;20587;-91
2021/12/05 16:13:24;;;;;;;15.55;2.80;;;9.60;99.90;;;;;;4934192;29;20024;-89
2021/12/05 16:15:53;;;;;;;17.35;2.88;;;9.50;99.90;;;;;;4934190;29;20031;-90
2021/12/05 16:18:20;;;;;;;18.27;2.70;;;9.50;99.90;;;;;;4932906;29;20035;-90
2021/12/05 16:20:54;;;;;;;21.80;3.53;;;9.50;99.90;;;;;;4932777;29;20059;-90
2021/12/05 16:23:26;;;;;;;14.73;2.90;;;9.50;99.90;;;;;;4932870;29;20148;-91
2021/12/05 16:26:09;;;;;;;21.42;3.15;;;9.40;99.90;;;;;;4929730;29;20047;-90
2021/12/05 16:28:37;;;;;;;19.67;2.85;;;9.40;99.90;;;;;;4916740;29;20028;-91
2021/12/05 16:31:20;;;;;;;21.92;3.72;;;9.40;99.90;;;;;;4915244;29;20509;-91
2021/12/05 16:33:52;;;;;;;24.77;3.83;;;9.30;99.90;;;;;;4924205;29;20032;-90
2021/12/05 16:36:21;;;;;;;27.13;4.85;;;9.30;99.90;;;;;;4930830;29;20374;-90
2021/12/05 16:38:50;;;;;;;25.05;3.47;;;9.30;99.90;;;;;;4921867;29;20020;-96
2021/12/05 16:41:28;;;;;;;22.15;3.80;;;9.30;99.90;;;;;;4927108;29;20031;-91
2021/12/05 16:44:15;;;;;;;23.88;3.10;;;9.30;99.90;;;;;;4921846;29;20400;-90
2021/12/05 16:46:46;;;;;;;16.08;3.55;;;9.40;99.90;;;;;;4926885;29;20081;-90
2021/12/05 16:49:21;;;;;;;17.92;3.00;;;9.40;99.90;;;;;;4941257;29;20095;-91
2021/12/05 16:51:49;;;;;;;;;;;9.40;99.90;;;;;;4942853;29;20083;-93
2021/12/05 16:54:43;;;;;;;18.77;2.92;;;9.50;99.90;;;;;;4930825;29;19907;-90
2021/12/05 16:57:14;;;;;;;13.90;3.10;;;9.40;99.90;;;;;;4964552;23;20079;-92
2021/12/05 16:59:47;;;;;;;19.75;3.17;;;9.40;99.90;;;;;;4951960;29;20023;-91
2021/12/05 17:06:50;;;;;;;24.30;3.85;;;9.40;99.90;;;;;;4952695;28;20436;-95
2021/12/05 17:16:43;;;;;;;18.23;3.08;;;9.50;99.90;;;;;;4903813;29;20039;-88
2021/12/05 17:19:12;;;;;;;18.25;2.75;;;9.50;99.90;;;;;;4950213;28;20122;-86
2021/12/05 17:21:47;;;;;;;21.75;3.63;;;9.60;99.90;;;;;;4952317;28;20024;-86
2021/12/05 17:24:21;;;;;;;28.52;4.10;;;9.60;99.90;;;;;;4954156;29;20023;-87
2021/12/05 17:26:54;;;;;;;19.13;3.75;;;9.60;99.90;;;;;;4950401;29;20035;-87
2021/12/05 17:29:34;;;;;;;26.23;3.78;;;9.60;99.90;;;;;;4950595;29;20123;-87
2021/12/05 17:32:10;;;;;;;17.92;3.13;;;9.60;99.90;;;;;;4952806;28;20027;-87
2021/12/05 17:34:43;;;;;;;24.48;2.80;;;9.60;99.90;;;;;;4951897;28;20119;-87
2021/12/05 17:37:13;;;;;;;19.88;4.07;;;9.60;99.90;;;;;;4951928;28;20037;-87
2021/12/05 17:39:42;;;;;;;17.60;3.40;;;9.60;99.90;;;;;;4940867;28;20028;-87
2021/12/05 17:42:12;;;;;;;17.55;2.78;;;9.60;99.90;;;;;;4944251;29;20027;-90
2021/12/05 17:44:39;;;;;;;47.15;16.30;;;9.50;99.90;;;;;;4962146;28;20069;-88
2021/12/05 17:47:10;;;;;;;37.72;12.90;;;9.50;99.90;;;;;;4961653;28;20251;-87
2021/12/05 17:49:38;;;;;;;18.60;3.78;;;9.50;99.90;;;;;;4962023;28;20024;-88
2021/12/05 17:52:06;;;;;;;21.55;3.10;;;9.50;99.90;;;;;;4961656;28;20079;-88
2021/12/05 17:54:41;;;;;;;13.68;2.13;;;9.50;99.90;;;;;;4953606;28;20031;-87
2021/12/05 17:57:13;;;;;;;15.10;2.33;;;9.50;99.90;;;;;;4945732;29;20058;-89
2021/12/05 17:59:55;;;;;;;14.85;2.85;;;9.40;99.90;;;;;;4945422;29;20032;-88
2021/12/05 18:02:42;;;;;;;18.55;2.70;;;9.40;99.90;;;;;;4944789;29;20024;-89
2021/12/05 18:05:30;;;;;;;15.57;2.55;;;9.30;99.90;;;;;;4944670;29;20118;-88
2021/12/05 18:07:59;;;;;;;18.13;3.13;;;9.40;99.90;;;;;;4946161;29;20027;-87
2021/12/05 18:10:30;;;;;;;16.55;2.70;;;9.30;99.90;;;;;;4946328;29;20094;-87
2021/12/05 18:12:59;;;;;;;17.42;2.30;;;9.30;99.90;;;;;;4945147;29;20055;-87
2021/12/05 18:15:30;;;;;;;15.95;2.20;;;9.40;99.90;;;;;;4946535;29;20035;-87
2021/12/05 18:17:58;;;;;;;19.15;2.55;;;9.40;99.90;;;;;;4945117;29;20416;-88
2021/12/05 18:20:27;;;;;;;15.38;2.17;;;9.40;99.90;;;;;;4944888;29;20354;-88
2021/12/05 18:22:56;;;;;;;17.40;3.17;;;9.40;99.90;;;;;;4946408;29;20020;-88
2021/12/05 18:25:22;;;;;;;16.88;2.72;;;9.40;99.90;;;;;;4945578;29;20086;-87
2021/12/05 18:27:48;;;;;;;20.13;2.95;;;9.40;99.90;;;;;;4944823;29;20051;-88
2021/12/05 18:30:16;;;;;;;13.48;2.67;;;9.40;99.90;;;;;;4944132;29;20387;-87
2021/12/05 18:32:43;;;;;;;12.38;2.40;;;9.30;99.90;;;;;;4945958;29;20083;-87
2021/12/05 18:35:10;;;;;;;17.38;2.55;;;9.30;99.90;;;;;;4945939;29;20152;-88
2021/12/05 18:37:36;;;;;;;15.38;2.25;;;9.30;99.90;;;;;;4955246;29;20300;-87
2021/12/05 18:40:04;;;;;;;19.55;3.17;;;9.20;99.90;;;;;;4962949;29;20024;-87
2021/12/05 18:42:30;;;;;;;16.42;2.55;;;9.20;99.90;;;;;;4955851;29;20023;-86
2021/12/05 18:45:00;;;;;;;11.60;3.03;;;9.20;99.90;;;;;;4944894;29;20031;-87
2021/12/05 18:47:26;;;;;;;19.77;2.90;;;9.10;99.90;;;;;;4945298;29;20450;-87
2021/12/05 18:49:52;;;;;;;15.32;2.60;;;9.10;99.90;;;;;;4946155;29;20075;-88
2021/12/05 18:52:18;;;;;;;14.57;2.22;;;9.10;99.90;;;;;;4945917;29;20031;-86
2021/12/05 18:54:45;;;;;;;19.45;3.05;;;9.10;99.90;;;;;;4945609;29;20039;-91
2021/12/05 18:57:15;;;;;;;15.68;2.60;;;9.00;99.90;;;;;;4944155;29;20058;-87
2021/12/05 19:00:00;;;;;;;20.63;3.13;;;9.00;99.90;;;;;;4945146;29;20028;-90
2021/12/05 19:05:18;;;;;;;15.85;2.67;;;9.00;99.90;;;;;;4953926;28;20038;-87
2021/12/05 19:08:17;;;;;;;16.27;2.75;;;8.90;99.90;;;;;;4957938;28;20028;-87
2021/12/05 19:13:29;;;;;;;23.67;3.22;;;8.90;99.90;;;;;;4945192;29;20107;-94
2021/12/05 19:15:54;;;;;;;24.27;5.53;;;8.90;99.90;;;;;;4954163;29;20031;-87
2021/12/05 19:18:20;;;;;;;24.05;4.75;;;8.90;99.90;;;;;;4963414;29;20038;-86
2021/12/05 19:20:48;;;;;;;22.05;5.60;;;8.90;99.90;;;;;;4964577;29;20366;-87
2021/12/05 19:23:14;;;;;;;22.27;4.82;;;8.90;99.90;;;;;;4964333;28;20031;-87
2021/12/05 19:25:42;;;;;;;15.00;2.95;;;8.90;99.90;;;;;;4964565;28;20456;-87
2021/12/05 19:28:11;;;;;;;20.33;3.75;;;8.90;99.90;;;;;;4963870;28;20023;-92
2021/12/05 19:30:45;;;;;;;11.35;2.53;;;8.80;99.90;;;;;;4952966;28;20034;-87
2021/12/05 19:33:12;;;;;;;22.50;3.93;;;8.90;99.90;;;;;;4964689;28;20019;-87
2021/12/05 19:35:39;;;;;;;22.60;2.85;;;8.80;99.90;;;;;;4964640;28;20346;-87
2021/12/05 19:38:07;;;;;;;21.15;4.20;;;8.80;99.90;;;;;;4963677;28;20073;-87